sensor_id;sensor_type;location;lat;lon;timestamp;temperature;humidity
6407;DHT22;3236;51.022;6.818;2022-11-23T00:01:39;8.90;99.90
6407;DHT22;3236;51.022;6.818;2022-11-23T00:04:11;8.90;99.90
6407;DHT22;3236;51.022;6.818;2022-11-23T00:06:41;10.10;99.90
6407;DHT22;3236;51.022;6.818;2022-11-23T00:09:09;8.60;99.90
6407;DHT22;3236;51.022;6.818;2022-11-23T00:11:38;8.90;99.90
6407;DHT22;3236;51.022;6.818;2022-11-23T00:14:05;8.70;99.90
6407;DHT22;3236;51.022;6.818;2022-11-23T00:16:33;8.60;99.90
6407;DHT22;3236;51.022;6.818;2022-11-23T00:19:00;8.90;99.90
6407;DHT22;3236;51.022;6.818;2022-11-23T00:21:30;8.90;99.90
6407;DHT22;3236;51.022;6.818;2022-11-23T00:23:58;8.90;99.90
6407;DHT22;3236;51.022;6.818;2022-11-23T00:26:25;8.90;99.90
6407;DHT22;3236;51.022;6.818;2022-11-23T00:28:53;8.80;99.90
6407;DHT22;3236;51.022;6.818;2022-11-23T00:31:20;8.90;99.90
6407;DHT22;3236;51.022;6.818;2022-11-23T00:33:50;8.90;99.90
6407;DHT22;3236;51.022;6.818;2022-11-23T00:36:18;8.60;99.90
6407;DHT22;3236;51.022;6.818;2022-11-23T00:38:47;8.60;99.90
6407;DHT22;3236;51.022;6.818;2022-11-23T00:41:17;9.10;99.90
6407;DHT22;3236;51.022;6.818;2022-11-23T00:43:44;8.70;99.90
6407;DHT22;3236;51.022;6.818;2022-11-23T00:48:44;8.90;99.90
6407;DHT22;3236;51.022;6.818;2022-11-23T00:53:40;9.00;99.90
6407;DHT22;3236;51.022;6.818;2022-11-23T00:56:09;9.00;99.90
6407;DHT22;3236;51.022;6.818;2022-11-23T00:58:36;9.10;99.90
6407;DHT22;3236;51.022;6.818;2022-11-23T01:01:06;9.10;99.90
6407;DHT22;3236;51.022;6.818;2022-11-23T01:03:35;9.00;99.90
6407;DHT22;3236;51.022;6.818;2022-11-23T01:06:04;9.00;99.90
6407;DHT22;3236;51.022;6.818;2022-11-23T01:11:07;9.10;99.90
6407;DHT22;3236;51.022;6.818;2022-11-23T01:13:36;8.80;99.90
6407;DHT22;3236;51.022;6.818;2022-11-23T01:16:04;9.10;99.90
6407;DHT22;3236;51.022;6.818;2022-11-23T01:18:31;8.90;99.90
6407;DHT22;3236;51.022;6.818;2022-11-23T01:21:01;9.10;99.90
6407;DHT22;3236;51.022;6.818;2022-11-23T01:23:28;9.20;99.90
6407;DHT22;3236;51.022;6.818;2022-11-23T01:25:55;9.10;99.90
6407;DHT22;3236;51.022;6.818;2022-11-23T01:28:22;9.30;99.90
6407;DHT22;3236;51.022;6.818;2022-11-23T01:30:49;9.10;99.90
6407;DHT22;3236;51.022;6.818;2022-11-23T01:33:19;9.10;99.90
6407;DHT22;3236;51.022;6.818;2022-11-23T01:35:46;9.10;99.90
6407;DHT22;3236;51.022;6.818;2022-11-23T01:38:15;9.40;99.90
6407;DHT22;3236;51.022;6.818;2022-11-23T01:40:45;8.90;99.90
6407;DHT22;3236;51.022;6.818;2022-11-23T01:43:14;9.00;99.90
6407;DHT22;3236;51.022;6.818;2022-11-23T01:45:42;9.10;99.90
6407;DHT22;3236;51.022;6.818;2022-11-23T01:48:14;9.10;99.90
6407;DHT22;3236;51.022;6.818;2022-11-23T01:50:43;9.10;99.90
6407;DHT22;3236;51.022;6.818;2022-11-23T01:53:12;9.10;99.90
6407;DHT22;3236;51.022;6.818;2022-11-23T01:55:41;8.90;99.90
6407;DHT22;3236;51.022;6.818;2022-11-23T01:58:11;9.10;99.90
6407;DHT22;3236;51.022;6.818;2022-11-23T02:00:38;8.90;99.90
6407;DHT22;3236;51.022;6.818;2022-11-23T02:03:06;9.10;99.90
6407;DHT22;3236;51.022;6.818;2022-11-23T02:05:36;8.80;99.90
6407;DHT22;3236;51.022;6.818;2022-11-23T02:08:05;9.10;99.90
6407;DHT22;3236;51.022;6.818;2022-11-23T02:10:33;9.10;99.90
6407;DHT22;3236;51.022;6.818;2022-11-23T02:13:05;8.90;99.90
6407;DHT22;3236;51.022;6.818;2022-11-23T02:15:33;9.30;99.90
6407;DHT22;3236;51.022;6.818;2022-11-23T02:18:03;9.10;99.90
6407;DHT22;3236;51.022;6.818;2022-11-23T02:20:31;9.20;99.90
6407;DHT22;3236;51.022;6.818;2022-11-23T02:23:11;9.20;99.90
6407;DHT22;3236;51.022;6.818;2022-11-23T02:25:53;9.10;99.90
6407;DHT22;3236;51.022;6.818;2022-11-23T02:28:24;8.90;99.90
6407;DHT22;3236;51.022;6.818;2022-11-23T02:30:54;9.10;99.90
6407;DHT22;3236;51.022;6.818;2022-11-23T02:33:21;9.00;99.90
6407;DHT22;3236;51.022;6.818;2022-11-23T02:35:51;9.00;99.90
6407;DHT22;3236;51.022;6.818;2022-11-23T02:38:20;9.00;99.90
6407;DHT22;3236;51.022;6.818;2022-11-23T02:40:50;8.90;99.90
6407;DHT22;3236;51.022;6.818;2022-11-23T02:43:18;8.90;99.90
6407;DHT22;3236;51.022;6.818;2022-11-23T02:45:50;8.90;99.90
6407;DHT22;3236;51.022;6.818;2022-11-23T02:48:20;8.90;99.90
6407;DHT22;3236;51.022;6.818;2022-11-23T02:50:47;8.80;99.90
6407;DHT22;3236;51.022;6.818;2022-11-23T02:53:15;8.90;99.90
6407;DHT22;3236;51.022;6.818;2022-11-23T02:55:42;8.90;99.90
6407;DHT22;3236;51.022;6.818;2022-11-23T02:58:10;8.90;99.90
6407;DHT22;3236;51.022;6.818;2022-11-23T03:00:37;9.00;99.90
6407;DHT22;3236;51.022;6.818;2022-11-23T03:03:04;8.70;99.90
6407;DHT22;3236;51.022;6.818;2022-11-23T03:05:32;8.80;99.90
6407;DHT22;3236;51.022;6.818;2022-11-23T03:07:59;8.90;99.90
6407;DHT22;3236;51.022;6.818;2022-11-23T03:10:26;9.00;99.90
6407;DHT22;3236;51.022;6.818;2022-11-23T03:12:56;9.00;99.90
6407;DHT22;3236;51.022;6.818;2022-11-23T03:15:24;9.00;99.90
6407;DHT22;3236;51.022;6.818;2022-11-23T03:17:51;8.90;99.90
6407;DHT22;3236;51.022;6.818;2022-11-23T03:20:18;8.90;99.90
6407;DHT22;3236;51.022;6.818;2022-11-23T03:22:46;8.90;99.90
6407;DHT22;3236;51.022;6.818;2022-11-23T03:25:16;8.90;99.90
6407;DHT22;3236;51.022;6.818;2022-11-23T03:27:43;8.60;99.90
6407;DHT22;3236;51.022;6.818;2022-11-23T03:30:10;8.70;99.90
6407;DHT22;3236;51.022;6.818;2022-11-23T03:32:39;8.90;99.90
6407;DHT22;3236;51.022;6.818;2022-11-23T03:35:07;8.90;99.90
6407;DHT22;3236;51.022;6.818;2022-11-23T03:37:34;8.70;99.90
6407;DHT22;3236;51.022;6.818;2022-11-23T03:40:01;9.30;99.90
6407;DHT22;3236;51.022;6.818;2022-11-23T03:42:29;8.80;99.90
6407;DHT22;3236;51.022;6.818;2022-11-23T03:44:56;8.80;99.90
6407;DHT22;3236;51.022;6.818;2022-11-23T03:47:23;8.80;99.90
6407;DHT22;3236;51.022;6.818;2022-11-23T03:49:52;8.80;99.90
6407;DHT22;3236;51.022;6.818;2022-11-23T03:52:19;8.90;99.90
6407;DHT22;3236;51.022;6.818;2022-11-23T03:54:46;8.90;99.90
6407;DHT22;3236;51.022;6.818;2022-11-23T03:57:13;8.90;99.90
6407;DHT22;3236;51.022;6.818;2022-11-23T03:59:40;8.80;99.90
6407;DHT22;3236;51.022;6.818;2022-11-23T04:02:07;9.00;99.90
6407;DHT22;3236;51.022;6.818;2022-11-23T04:04:35;9.10;99.90
6407;DHT22;3236;51.022;6.818;2022-11-23T04:07:03;8.90;99.90
6407;DHT22;3236;51.022;6.818;2022-11-23T04:09:30;8.90;99.90
6407;DHT22;3236;51.022;6.818;2022-11-23T04:11:57;8.90;99.90
6407;DHT22;3236;51.022;6.818;2022-11-23T04:14:24;8.80;99.90
6407;DHT22;3236;51.022;6.818;2022-11-23T04:16:52;8.90;99.90
6407;DHT22;3236;51.022;6.818;2022-11-23T04:19:19;8.90;99.90
6407;DHT22;3236;51.022;6.818;2022-11-23T04:21:46;9.00;99.90
6407;DHT22;3236;51.022;6.818;2022-11-23T04:24:14;8.70;99.90
6407;DHT22;3236;51.022;6.818;2022-11-23T04:26:41;8.80;99.90
6407;DHT22;3236;51.022;6.818;2022-11-23T04:29:08;8.80;99.90
6407;DHT22;3236;51.022;6.818;2022-11-23T04:31:35;8.90;99.90
6407;DHT22;3236;51.022;6.818;2022-11-23T04:34:03;9.20;99.90
6407;DHT22;3236;51.022;6.818;2022-11-23T04:36:33;8.80;99.90
6407;DHT22;3236;51.022;6.818;2022-11-23T04:39:00;8.90;99.90
6407;DHT22;3236;51.022;6.818;2022-11-23T04:41:29;8.90;99.90
6407;DHT22;3236;51.022;6.818;2022-11-23T04:43:59;9.00;99.90
6407;DHT22;3236;51.022;6.818;2022-11-23T04:46:27;8.90;99.90
6407;DHT22;3236;51.022;6.818;2022-11-23T04:48:54;8.90;99.90
6407;DHT22;3236;51.022;6.818;2022-11-23T04:51:21;9.20;99.90
6407;DHT22;3236;51.022;6.818;2022-11-23T04:53:48;8.60;99.90
6407;DHT22;3236;51.022;6.818;2022-11-23T04:56:16;8.50;99.90
6407;DHT22;3236;51.022;6.818;2022-11-23T04:58:45;9.20;99.90
6407;DHT22;3236;51.022;6.818;2022-11-23T05:01:12;8.70;99.90
6407;DHT22;3236;51.022;6.818;2022-11-23T05:03:40;9.00;99.90
6407;DHT22;3236;51.022;6.818;2022-11-23T05:06:09;9.10;99.90
6407;DHT22;3236;51.022;6.818;2022-11-23T05:08:36;9.00;99.90
6407;DHT22;3236;51.022;6.818;2022-11-23T05:11:03;8.90;99.90
6407;DHT22;3236;51.022;6.818;2022-11-23T05:13:31;9.20;99.90
6407;DHT22;3236;51.022;6.818;2022-11-23T05:15:59;8.90;99.90
6407;DHT22;3236;51.022;6.818;2022-11-23T05:18:26;8.50;99.90
6407;DHT22;3236;51.022;6.818;2022-11-23T05:20:54;8.90;99.90
6407;DHT22;3236;51.022;6.818;2022-11-23T05:23:21;8.80;99.90
6407;DHT22;3236;51.022;6.818;2022-11-23T05:25:48;9.10;99.90
6407;DHT22;3236;51.022;6.818;2022-11-23T05:28:17;8.80;99.90
6407;DHT22;3236;51.022;6.818;2022-11-23T05:30:44;8.70;99.90
6407;DHT22;3236;51.022;6.818;2022-11-23T05:33:13;8.70;99.90
6407;DHT22;3236;51.022;6.818;2022-11-23T05:35:40;8.50;99.90
6407;DHT22;3236;51.022;6.818;2022-11-23T05:38:07;8.50;99.90
6407;DHT22;3236;51.022;6.818;2022-11-23T05:40:34;8.40;99.90
6407;DHT22;3236;51.022;6.818;2022-11-23T05:43:01;8.70;99.90
6407;DHT22;3236;51.022;6.818;2022-11-23T05:45:31;8.50;99.90
6407;DHT22;3236;51.022;6.818;2022-11-23T05:48:01;8.60;99.90
6407;DHT22;3236;51.022;6.818;2022-11-23T05:50:30;8.60;99.90
6407;DHT22;3236;51.022;6.818;2022-11-23T05:52:58;8.50;99.90
6407;DHT22;3236;51.022;6.818;2022-11-23T05:55:25;8.20;99.90
6407;DHT22;3236;51.022;6.818;2022-11-23T05:57:52;8.20;99.90
6407;DHT22;3236;51.022;6.818;2022-11-23T06:00:19;8.60;99.90
6407;DHT22;3236;51.022;6.818;2022-11-23T06:02:47;8.50;99.90
6407;DHT22;3236;51.022;6.818;2022-11-23T06:05:14;8.50;99.90
6407;DHT22;3236;51.022;6.818;2022-11-23T06:07:42;8.20;99.90
6407;DHT22;3236;51.022;6.818;2022-11-23T06:10:10;8.50;99.90
6407;DHT22;3236;51.022;6.818;2022-11-23T06:12:37;8.30;99.90
6407;DHT22;3236;51.022;6.818;2022-11-23T06:15:05;8.50;99.90
6407;DHT22;3236;51.022;6.818;2022-11-23T06:17:34;8.80;99.90
6407;DHT22;3236;51.022;6.818;2022-11-23T06:20:01;8.50;99.90
6407;DHT22;3236;51.022;6.818;2022-11-23T06:22:28;8.60;99.90
6407;DHT22;3236;51.022;6.818;2022-11-23T06:24:56;8.30;99.90
6407;DHT22;3236;51.022;6.818;2022-11-23T06:27:24;8.50;99.90
6407;DHT22;3236;51.022;6.818;2022-11-23T06:29:52;8.60;99.90
6407;DHT22;3236;51.022;6.818;2022-11-23T06:32:20;8.80;99.90
6407;DHT22;3236;51.022;6.818;2022-11-23T06:34:47;8.40;99.90
6407;DHT22;3236;51.022;6.818;2022-11-23T06:37:14;8.70;99.90
6407;DHT22;3236;51.022;6.818;2022-11-23T06:39:41;8.50;99.90
6407;DHT22;3236;51.022;6.818;2022-11-23T06:42:12;8.60;99.90
6407;DHT22;3236;51.022;6.818;2022-11-23T06:44:39;8.30;99.90
6407;DHT22;3236;51.022;6.818;2022-11-23T06:47:09;8.30;99.90
6407;DHT22;3236;51.022;6.818;2022-11-23T06:49:36;8.20;99.90
6407;DHT22;3236;51.022;6.818;2022-11-23T06:52:04;8.30;99.90
6407;DHT22;3236;51.022;6.818;2022-11-23T06:54:34;8.20;99.90
6407;DHT22;3236;51.022;6.818;2022-11-23T06:57:01;8.40;99.90
6407;DHT22;3236;51.022;6.818;2022-11-23T06:59:30;8.50;99.90
6407;DHT22;3236;51.022;6.818;2022-11-23T07:01:57;8.10;99.90
6407;DHT22;3236;51.022;6.818;2022-11-23T07:06:58;8.50;99.90
6407;DHT22;3236;51.022;6.818;2022-11-23T07:09:25;8.40;99.90
6407;DHT22;3236;51.022;6.818;2022-11-23T07:11:52;8.20;99.90
6407;DHT22;3236;51.022;6.818;2022-11-23T07:14:19;8.50;99.90
6407;DHT22;3236;51.022;6.818;2022-11-23T07:16:50;8.50;99.90
6407;DHT22;3236;51.022;6.818;2022-11-23T07:19:17;8.20;99.90
6407;DHT22;3236;51.022;6.818;2022-11-23T07:21:45;8.10;99.90
6407;DHT22;3236;51.022;6.818;2022-11-23T07:24:12;8.40;99.90
6407;DHT22;3236;51.022;6.818;2022-11-23T07:26:39;8.20;99.90
6407;DHT22;3236;51.022;6.818;2022-11-23T07:29:06;8.30;99.90
6407;DHT22;3236;51.022;6.818;2022-11-23T07:31:33;8.30;99.90
6407;DHT22;3236;51.022;6.818;2022-11-23T07:34:01;8.70;99.90
6407;DHT22;3236;51.022;6.818;2022-11-23T07:36:30;8.40;99.90
6407;DHT22;3236;51.022;6.818;2022-11-23T07:38:57;8.50;99.90
6407;DHT22;3236;51.022;6.818;2022-11-23T07:41:24;7.90;99.90
6407;DHT22;3236;51.022;6.818;2022-11-23T07:43:53;8.30;99.90
6407;DHT22;3236;51.022;6.818;2022-11-23T07:46:20;8.00;99.90
6407;DHT22;3236;51.022;6.818;2022-11-23T07:48:47;8.10;99.90
6407;DHT22;3236;51.022;6.818;2022-11-23T07:51:16;8.00;99.90
6407;DHT22;3236;51.022;6.818;2022-11-23T07:53:44;8.20;99.90
6407;DHT22;3236;51.022;6.818;2022-11-23T07:56:12;8.20;99.90
6407;DHT22;3236;51.022;6.818;2022-11-23T07:58:39;8.20;99.90
6407;DHT22;3236;51.022;6.818;2022-11-23T08:01:08;8.30;99.90
6407;DHT22;3236;51.022;6.818;2022-11-23T08:03:39;8.00;99.90
6407;DHT22;3236;51.022;6.818;2022-11-23T08:06:08;8.10;99.90
6407;DHT22;3236;51.022;6.818;2022-11-23T08:08:37;8.50;99.90
6407;DHT22;3236;51.022;6.818;2022-11-23T08:11:05;8.30;99.90
6407;DHT22;3236;51.022;6.818;2022-11-23T08:13:32;8.40;99.90
6407;DHT22;3236;51.022;6.818;2022-11-23T08:18:28;8.50;99.90
6407;DHT22;3236;51.022;6.818;2022-11-23T08:20:58;8.50;99.90
6407;DHT22;3236;51.022;6.818;2022-11-23T08:23:26;9.00;99.90
6407;DHT22;3236;51.022;6.818;2022-11-23T08:25:54;8.60;99.90
6407;DHT22;3236;51.022;6.818;2022-11-23T08:28:21;8.30;99.90
6407;DHT22;3236;51.022;6.818;2022-11-23T08:30:48;8.70;99.90
6407;DHT22;3236;51.022;6.818;2022-11-23T08:33:16;8.80;99.90
6407;DHT22;3236;51.022;6.818;2022-11-23T08:35:43;9.10;99.90
6407;DHT22;3236;51.022;6.818;2022-11-23T08:38:10;8.90;99.90
6407;DHT22;3236;51.022;6.818;2022-11-23T08:40:38;8.80;99.90
6407;DHT22;3236;51.022;6.818;2022-11-23T08:43:06;8.90;99.90
6407;DHT22;3236;51.022;6.818;2022-11-23T08:45:37;8.90;99.90
6407;DHT22;3236;51.022;6.818;2022-11-23T08:48:05;8.90;99.90
6407;DHT22;3236;51.022;6.818;2022-11-23T08:50:33;8.60;99.90
6407;DHT22;3236;51.022;6.818;2022-11-23T08:53:02;9.00;99.90
6407;DHT22;3236;51.022;6.818;2022-11-23T08:55:28;8.80;99.90
6407;DHT22;3236;51.022;6.818;2022-11-23T08:57:56;8.90;99.90
6407;DHT22;3236;51.022;6.818;2022-11-23T09:00:26;9.10;99.90
6407;DHT22;3236;51.022;6.818;2022-11-23T09:02:53;9.10;99.90
6407;DHT22;3236;51.022;6.818;2022-11-23T09:05:22;9.30;99.90
6407;DHT22;3236;51.022;6.818;2022-11-23T09:07:49;8.80;99.90
6407;DHT22;3236;51.022;6.818;2022-11-23T09:10:16;9.50;99.90
6407;DHT22;3236;51.022;6.818;2022-11-23T09:12:46;8.90;99.90
6407;DHT22;3236;51.022;6.818;2022-11-23T09:15:13;9.00;99.90
6407;DHT22;3236;51.022;6.818;2022-11-23T09:17:42;9.30;99.90
6407;DHT22;3236;51.022;6.818;2022-11-23T09:20:12;9.30;99.90
6407;DHT22;3236;51.022;6.818;2022-11-23T09:22:40;9.20;99.90
6407;DHT22;3236;51.022;6.818;2022-11-23T09:25:08;9.40;99.90
6407;DHT22;3236;51.022;6.818;2022-11-23T09:27:35;9.10;99.90
6407;DHT22;3236;51.022;6.818;2022-11-23T09:30:03;9.40;99.90
6407;DHT22;3236;51.022;6.818;2022-11-23T09:32:31;9.40;99.90
6407;DHT22;3236;51.022;6.818;2022-11-23T09:35:00;9.50;99.90
6407;DHT22;3236;51.022;6.818;2022-11-23T09:37:27;9.40;99.90
6407;DHT22;3236;51.022;6.818;2022-11-23T09:39:54;9.30;99.90
6407;DHT22;3236;51.022;6.818;2022-11-23T09:45:26;9.50;99.90
6407;DHT22;3236;51.022;6.818;2022-11-23T09:48:24;9.70;99.90
6407;DHT22;3236;51.022;6.818;2022-11-23T09:50:57;10.00;99.90
6407;DHT22;3236;51.022;6.818;2022-11-23T09:53:31;9.60;99.90
6407;DHT22;3236;51.022;6.818;2022-11-23T09:55:59;9.80;99.90
6407;DHT22;3236;51.022;6.818;2022-11-23T09:58:36;9.70;99.90
6407;DHT22;3236;51.022;6.818;2022-11-23T10:01:10;9.40;99.90
6407;DHT22;3236;51.022;6.818;2022-11-23T10:03:47;9.00;99.90
6407;DHT22;3236;51.022;6.818;2022-11-23T10:06:19;9.20;99.90
6407;DHT22;3236;51.022;6.818;2022-11-23T10:09:00;9.70;99.90
6407;DHT22;3236;51.022;6.818;2022-11-23T10:11:43;9.50;99.90
6407;DHT22;3236;51.022;6.818;2022-11-23T10:14:32;9.80;99.90
6407;DHT22;3236;51.022;6.818;2022-11-23T10:17:05;10.10;99.90
6407;DHT22;3236;51.022;6.818;2022-11-23T10:19:46;10.20;99.90
6407;DHT22;3236;51.022;6.818;2022-11-23T10:22:24;9.70;99.90
6407;DHT22;3236;51.022;6.818;2022-11-23T10:24:58;9.50;99.90
6407;DHT22;3236;51.022;6.818;2022-11-23T10:27:28;9.70;99.90
6407;DHT22;3236;51.022;6.818;2022-11-23T10:29:57;9.90;99.90
6407;DHT22;3236;51.022;6.818;2022-11-23T10:32:28;10.10;99.90
6407;DHT22;3236;51.022;6.818;2022-11-23T10:35:01;9.80;99.90
6407;DHT22;3236;51.022;6.818;2022-11-23T10:37:31;10.30;99.90
6407;DHT22;3236;51.022;6.818;2022-11-23T10:39:59;10.40;99.90
6407;DHT22;3236;51.022;6.818;2022-11-23T10:42:30;11.00;99.90
6407;DHT22;3236;51.022;6.818;2022-11-23T10:44:58;10.30;99.90
6407;DHT22;3236;51.022;6.818;2022-11-23T10:47:40;10.10;99.90
6407;DHT22;3236;51.022;6.818;2022-11-23T10:50:26;10.10;99.90
6407;DHT22;3236;51.022;6.818;2022-11-23T10:52:58;10.50;99.90
6407;DHT22;3236;51.022;6.818;2022-11-23T10:55:28;11.20;99.90
6407;DHT22;3236;51.022;6.818;2022-11-23T10:57:56;11.90;99.90
6407;DHT22;3236;51.022;6.818;2022-11-23T11:00:25;12.10;99.90
6407;DHT22;3236;51.022;6.818;2022-11-23T11:02:56;12.20;99.90
6407;DHT22;3236;51.022;6.818;2022-11-23T11:05:27;12.40;99.90
6407;DHT22;3236;51.022;6.818;2022-11-23T11:07:58;12.30;99.90
6407;DHT22;3236;51.022;6.818;2022-11-23T11:10:38;12.40;99.90
6407;DHT22;3236;51.022;6.818;2022-11-23T11:13:23;13.30;99.90
6407;DHT22;3236;51.022;6.818;2022-11-23T11:15:52;12.90;99.90
6407;DHT22;3236;51.022;6.818;2022-11-23T11:18:19;13.00;99.90
6407;DHT22;3236;51.022;6.818;2022-11-23T11:20:48;12.90;99.90
6407;DHT22;3236;51.022;6.818;2022-11-23T11:23:24;13.00;99.90
6407;DHT22;3236;51.022;6.818;2022-11-23T11:26:02;13.30;99.90
6407;DHT22;3236;51.022;6.818;2022-11-23T11:28:34;13.20;99.90
6407;DHT22;3236;51.022;6.818;2022-11-23T11:31:14;11.90;99.90
6407;DHT22;3236;51.022;6.818;2022-11-23T11:33:49;10.80;99.90
6407;DHT22;3236;51.022;6.818;2022-11-23T11:36:20;11.00;99.90
6407;DHT22;3236;51.022;6.818;2022-11-23T11:38:52;10.90;99.90
6407;DHT22;3236;51.022;6.818;2022-11-23T11:41:23;10.80;99.90
6407;DHT22;3236;51.022;6.818;2022-11-23T11:43:56;10.60;99.90
6407;DHT22;3236;51.022;6.818;2022-11-23T11:46:26;10.70;99.90
6407;DHT22;3236;51.022;6.818;2022-11-23T11:49:02;10.80;99.90
6407;DHT22;3236;51.022;6.818;2022-11-23T11:51:38;10.70;99.90
6407;DHT22;3236;51.022;6.818;2022-11-23T11:54:15;10.70;99.90
6407;DHT22;3236;51.022;6.818;2022-11-23T11:56:47;11.60;99.90
6407;DHT22;3236;51.022;6.818;2022-11-23T11:59:19;12.30;99.90
6407;DHT22;3236;51.022;6.818;2022-11-23T12:01:51;12.50;99.90
6407;DHT22;3236;51.022;6.818;2022-11-23T12:04:20;11.00;99.90
6407;DHT22;3236;51.022;6.818;2022-11-23T12:06:53;10.80;99.90
6407;DHT22;3236;51.022;6.818;2022-11-23T12:09:30;10.70;99.90
6407;DHT22;3236;51.022;6.818;2022-11-23T12:11:59;10.70;99.90
6407;DHT22;3236;51.022;6.818;2022-11-23T12:14:33;10.60;99.90
6407;DHT22;3236;51.022;6.818;2022-11-23T12:17:04;10.70;99.90
6407;DHT22;3236;51.022;6.818;2022-11-23T12:19:36;11.00;99.90
6407;DHT22;3236;51.022;6.818;2022-11-23T12:22:33;11.10;99.90
6407;DHT22;3236;51.022;6.818;2022-11-23T12:25:14;10.20;99.90
6407;DHT22;3236;51.022;6.818;2022-11-23T12:27:59;10.80;99.90
6407;DHT22;3236;51.022;6.818;2022-11-23T12:30:39;10.50;99.90
6407;DHT22;3236;51.022;6.818;2022-11-23T12:33:36;10.50;99.90
6407;DHT22;3236;51.022;6.818;2022-11-23T12:36:14;10.50;99.90
6407;DHT22;3236;51.022;6.818;2022-11-23T12:38:54;12.80;99.90
6407;DHT22;3236;51.022;6.818;2022-11-23T12:41:35;13.40;99.90
6407;DHT22;3236;51.022;6.818;2022-11-23T12:44:35;14.90;99.90
6407;DHT22;3236;51.022;6.818;2022-11-23T12:47:19;15.80;99.90
6407;DHT22;3236;51.022;6.818;2022-11-23T12:49:52;15.90;99.90
6407;DHT22;3236;51.022;6.818;2022-11-23T12:52:29;16.30;99.90
6407;DHT22;3236;51.022;6.818;2022-11-23T12:55:05;15.60;99.80
6407;DHT22;3236;51.022;6.818;2022-11-23T12:57:53;15.30;99.90
6407;DHT22;3236;51.022;6.818;2022-11-23T13:00:22;15.30;99.90
6407;DHT22;3236;51.022;6.818;2022-11-23T13:06:18;15.50;99.90
6407;DHT22;3236;51.022;6.818;2022-11-23T13:12:17;15.10;99.90
6407;DHT22;3236;51.022;6.818;2022-11-23T13:14:56;15.70;99.90
6407;DHT22;3236;51.022;6.818;2022-11-23T13:17:31;15.90;99.90
6407;DHT22;3236;51.022;6.818;2022-11-23T13:20:15;14.10;99.90
6407;DHT22;3236;51.022;6.818;2022-11-23T13:22:48;15.70;99.90
6407;DHT22;3236;51.022;6.818;2022-11-23T13:25:21;15.40;99.90
6407;DHT22;3236;51.022;6.818;2022-11-23T13:28:00;15.50;99.90
6407;DHT22;3236;51.022;6.818;2022-11-23T13:33:02;14.20;99.90
6407;DHT22;3236;51.022;6.818;2022-11-23T13:35:55;13.30;99.90
6407;DHT22;3236;51.022;6.818;2022-11-23T13:38:27;13.90;99.90
6407;DHT22;3236;51.022;6.818;2022-11-23T13:44:11;13.60;99.90
6407;DHT22;3236;51.022;6.818;2022-11-23T13:46:44;13.50;99.90
6407;DHT22;3236;51.022;6.818;2022-11-23T13:49:36;13.80;99.90
6407;DHT22;3236;51.022;6.818;2022-11-23T13:52:28;13.80;99.90
6407;DHT22;3236;51.022;6.818;2022-11-23T13:55:02;14.00;99.90
6407;DHT22;3236;51.022;6.818;2022-11-23T13:57:30;13.30;99.90
6407;DHT22;3236;51.022;6.818;2022-11-23T14:06:10;11.00;99.90
6407;DHT22;3236;51.022;6.818;2022-11-23T14:08:39;11.00;99.90
6407;DHT22;3236;51.022;6.818;2022-11-23T14:11:16;10.80;99.90
6407;DHT22;3236;51.022;6.818;2022-11-23T14:13:51;10.70;99.90
6407;DHT22;3236;51.022;6.818;2022-11-23T14:16:36;10.40;99.90
6407;DHT22;3236;51.022;6.818;2022-11-23T14:19:18;10.50;99.90
6407;DHT22;3236;51.022;6.818;2022-11-23T14:21:58;10.10;99.90
6407;DHT22;3236;51.022;6.818;2022-11-23T14:24:40;10.60;99.90
6407;DHT22;3236;51.022;6.818;2022-11-23T14:30:05;10.20;99.90
6407;DHT22;3236;51.022;6.818;2022-11-23T14:32:47;10.20;99.90
6407;DHT22;3236;51.022;6.818;2022-11-23T14:35:25;9.80;99.90
6407;DHT22;3236;51.022;6.818;2022-11-23T14:40:56;10.20;99.90
6407;DHT22;3236;51.022;6.818;2022-11-23T14:43:28;10.20;99.90
6407;DHT22;3236;51.022;6.818;2022-11-23T14:46:00;10.20;99.90
6407;DHT22;3236;51.022;6.818;2022-11-23T14:48:29;10.50;99.90
6407;DHT22;3236;51.022;6.818;2022-11-23T14:50:57;10.20;99.90
6407;DHT22;3236;51.022;6.818;2022-11-23T14:53:28;10.30;99.90
6407;DHT22;3236;51.022;6.818;2022-11-23T14:55:57;10.10;99.90
6407;DHT22;3236;51.022;6.818;2022-11-23T14:58:39;10.20;99.90
6407;DHT22;3236;51.022;6.818;2022-11-23T15:01:16;10.10;99.90
6407;DHT22;3236;51.022;6.818;2022-11-23T15:03:54;9.80;99.90
6407;DHT22;3236;51.022;6.818;2022-11-23T15:06:25;9.90;99.90
6407;DHT22;3236;51.022;6.818;2022-11-23T15:09:00;9.70;99.90
6407;DHT22;3236;51.022;6.818;2022-11-23T15:11:36;9.60;99.90
6407;DHT22;3236;51.022;6.818;2022-11-23T15:14:16;9.70;99.90
6407;DHT22;3236;51.022;6.818;2022-11-23T15:16:44;9.80;99.90
6407;DHT22;3236;51.022;6.818;2022-11-23T15:19:18;9.30;99.90
6407;DHT22;3236;51.022;6.818;2022-11-23T15:21:50;9.60;99.90
6407;DHT22;3236;51.022;6.818;2022-11-23T15:24:22;9.30;99.90
6407;DHT22;3236;51.022;6.818;2022-11-23T15:26:51;9.20;99.90
6407;DHT22;3236;51.022;6.818;2022-11-23T15:29:30;9.00;99.90
6407;DHT22;3236;51.022;6.818;2022-11-23T15:31:57;8.90;99.90
6407;DHT22;3236;51.022;6.818;2022-11-23T15:34:25;8.80;99.90
6407;DHT22;3236;51.022;6.818;2022-11-23T15:36:53;8.60;99.90
6407;DHT22;3236;51.022;6.818;2022-11-23T15:39:21;8.50;99.90
6407;DHT22;3236;51.022;6.818;2022-11-23T15:41:51;8.60;99.90
6407;DHT22;3236;51.022;6.818;2022-11-23T15:44:24;8.40;99.90
6407;DHT22;3236;51.022;6.818;2022-11-23T15:46:53;8.40;99.90
6407;DHT22;3236;51.022;6.818;2022-11-23T15:51:49;8.50;99.90
6407;DHT22;3236;51.022;6.818;2022-11-23T15:54:20;8.60;99.90
6407;DHT22;3236;51.022;6.818;2022-11-23T15:56:52;8.30;99.90
6407;DHT22;3236;51.022;6.818;2022-11-23T15:59:38;8.00;99.90
6407;DHT22;3236;51.022;6.818;2022-11-23T16:02:13;8.30;99.90
6407;DHT22;3236;51.022;6.818;2022-11-23T16:04:41;8.10;99.90
6407;DHT22;3236;51.022;6.818;2022-11-23T16:07:18;8.00;99.90
6407;DHT22;3236;51.022;6.818;2022-11-23T16:09:46;8.20;99.90
6407;DHT22;3236;51.022;6.818;2022-11-23T16:12:24;8.00;99.90
6407;DHT22;3236;51.022;6.818;2022-11-23T16:14:53;8.00;99.90
6407;DHT22;3236;51.022;6.818;2022-11-23T16:17:21;8.00;99.90
6407;DHT22;3236;51.022;6.818;2022-11-23T16:19:51;7.60;99.90
6407;DHT22;3236;51.022;6.818;2022-11-23T16:22:25;7.90;99.90
6407;DHT22;3236;51.022;6.818;2022-11-23T16:24:59;7.90;99.90
6407;DHT22;3236;51.022;6.818;2022-11-23T16:27:29;7.60;99.90
6407;DHT22;3236;51.022;6.818;2022-11-23T16:29:56;7.50;99.90
6407;DHT22;3236;51.022;6.818;2022-11-23T16:32:26;8.00;99.90
6407;DHT22;3236;51.022;6.818;2022-11-23T16:34:54;7.90;99.90
6407;DHT22;3236;51.022;6.818;2022-11-23T16:37:23;8.10;99.90
6407;DHT22;3236;51.022;6.818;2022-11-23T16:39:51;7.50;99.90
6407;DHT22;3236;51.022;6.818;2022-11-23T16:42:18;7.50;99.90
6407;DHT22;3236;51.022;6.818;2022-11-23T16:44:49;8.40;99.90
6407;DHT22;3236;51.022;6.818;2022-11-23T16:47:24;7.50;99.90
6407;DHT22;3236;51.022;6.818;2022-11-23T16:49:52;7.90;99.90
6407;DHT22;3236;51.022;6.818;2022-11-23T16:52:19;7.60;99.90
6407;DHT22;3236;51.022;6.818;2022-11-23T16:54:47;7.80;99.90
6407;DHT22;3236;51.022;6.818;2022-11-23T16:57:23;7.80;99.90
6407;DHT22;3236;51.022;6.818;2022-11-23T16:59:53;7.90;99.90
6407;DHT22;3236;51.022;6.818;2022-11-23T17:02:20;8.00;99.90
6407;DHT22;3236;51.022;6.818;2022-11-23T17:04:47;7.50;99.90
6407;DHT22;3236;51.022;6.818;2022-11-23T17:07:14;7.70;99.90
6407;DHT22;3236;51.022;6.818;2022-11-23T17:09:42;7.40;99.90
6407;DHT22;3236;51.022;6.818;2022-11-23T17:12:13;7.70;99.90
6407;DHT22;3236;51.022;6.818;2022-11-23T17:14:40;7.60;99.90
6407;DHT22;3236;51.022;6.818;2022-11-23T17:17:11;7.50;99.90
6407;DHT22;3236;51.022;6.818;2022-11-23T17:19:42;7.60;99.90